Gotham, United Kingdom
Current Conditions -  °F | °C
As of 1:50 PM on Thursday 30 Oct 2014 (Local Time) from EGNX Reporting Station
Broken Clouds Broken Clouds  
Wind Chill: 64°   Ceiling: 3500
Heat Index: 64°   Visibility: 6mi
Dew Point: 57°   Wind: 9mph
Humidity: 77%   Direction: 200°SSW
Pressure: 30"   Gusts: NA
Location:  52.87°N, 1.21°W
Report Text: EGNX 301350Z 20008KT 9999 SCT017 BKN035 18/14 Q1016
Loading
Personal Weather Stations






























Interactive Weather Map
Tropical Storm Tracking
New forecast layout! Learn more

10-Day Weather Forecast

Advertisements
Track Severe Weather on mobile